createdAt,value
2023-01-17T07:08:21.255Z,93966.69
2023-01-17T07:10:24.261Z,93960.94
2023-01-17T07:12:26.969Z,93955.41
2023-01-17T07:14:30.063Z,93944.66
2023-01-17T07:16:32.882Z,93938.56
2023-01-17T07:18:36.014Z,93939.84
2023-01-17T07:20:39.090Z,93929.44
2023-01-17T07:22:45.875Z,93919.47
2023-01-17T07:24:49.874Z,93911.66
2023-01-17T07:26:52.968Z,93912.81
2023-01-17T07:28:55.731Z,93899.47
2023-01-17T07:30:58.547Z,93914.50
2023-01-17T07:33:02.421Z,93926.06
2023-01-17T07:35:06.265Z,93926.06
2023-01-17T07:37:09.070Z,93935.06
2023-01-17T07:39:12.023Z,93920.06
2023-01-17T07:41:16.084Z,93925.06
2023-01-17T07:43:18.707Z,93927.25
2023-01-17T07:45:21.920Z,93924.09
2023-01-17T07:47:24.900Z,93925.44
2023-01-17T07:49:27.544Z,93928.41
2023-01-17T07:51:30.513Z,93930.78
2023-01-17T07:53:33.547Z,93935.53
2023-01-17T07:55:36.287Z,93934.50
2023-01-17T07:57:40.642Z,93934.50
2023-01-17T07:59:43.359Z,93931.63
2023-01-17T08:01:46.449Z,93938.16
2023-01-17T08:03:54.820Z,93929.72
2023-01-17T08:05:58.104Z,93929.91
2023-01-17T08:08:05.549Z,93932.00
2023-01-17T08:10:12.922Z,93937.25
2023-01-17T08:12:17.395Z,93935.16
2023-01-17T08:14:21.404Z,93938.34
2023-01-17T08:16:24.600Z,93937.31
2023-01-17T08:18:27.493Z,93927.81
2023-01-17T08:20:30.343Z,93934.44
2023-01-17T08:22:33.566Z,93937.09
2023-01-17T08:24:37.443Z,93933.09
2023-01-17T08:26:40.570Z,93930.66
2023-01-17T08:28:43.533Z,93925.06
2023-01-17T08:30:47.645Z,93923.25
2023-01-17T08:32:50.623Z,93916.34
2023-01-17T08:34:53.425Z,93913.47
2023-01-17T08:36:56.231Z,93919.78
2023-01-17T08:38:59.018Z,93902.69
2023-01-17T08:41:02.671Z,93917.38
2023-01-17T08:43:05.453Z,93908.47
2023-01-17T08:45:09.983Z,93909.53
2023-01-17T08:47:14.184Z,93904.03
2023-01-17T08:49:16.951Z,93899.81
2023-01-17T08:51:19.722Z,93901.97
2023-01-17T08:53:23.274Z,93900.69
2023-01-17T08:55:26.559Z,93904.91
2023-01-17T08:57:29.363Z,93904.59
2023-01-17T08:59:32.319Z,93904.28
2023-01-17T09:01:41.651Z,93894.50
2023-01-17T09:03:46.913Z,93890.47
2023-01-17T09:05:49.727Z,93894.16
2023-01-17T09:07:52.544Z,93894.16
2023-01-17T09:09:55.395Z,93895.47
2023-01-17T09:11:58.475Z,93882.34
2023-01-17T09:14:01.862Z,93871.34
2023-01-17T09:16:06.079Z,93864.78
2023-01-17T09:18:08.785Z,93859.03
2023-01-17T09:20:14.003Z,93857.94
2023-01-17T09:22:16.861Z,93858.19
2023-01-17T09:24:20.054Z,93864.25
2023-01-17T09:26:25.741Z,93865.59
2023-01-17T09:28:29.234Z,93867.16
2023-01-17T09:30:32.143Z,93864.84
2023-01-17T09:32:35.275Z,93858.06
2023-01-17T09:34:38.198Z,93861.94
2023-01-17T09:36:43.879Z,93862.41
2023-01-17T09:38:46.627Z,93868.16
2023-01-17T09:40:49.867Z,93870.84
2023-01-17T09:42:58.034Z,93860.88
2023-01-17T09:45:01.079Z,93865.38
2023-01-17T09:47:13.164Z,93850.16
2023-01-17T09:49:27.663Z,93855.97
2023-01-17T09:51:30.646Z,93847.06
2023-01-17T09:53:37.493Z,93834.41
2023-01-17T09:55:44.830Z,93844.16
2023-01-17T09:58:00.203Z,93843.59
2023-01-17T10:00:12.538Z,93833.59
2023-01-17T10:02:42.229Z,93821.94
2023-01-17T10:05:03.869Z,93820.00
2023-01-17T10:07:18.973Z,93811.78
2023-01-17T10:09:45.580Z,93812.28
2023-01-17T10:12:03.036Z,93806.91
2023-01-17T10:14:25.300Z,93812.66
2023-01-17T10:16:38.823Z,93805.03
2023-01-17T10:19:12.911Z,93804.28
2023-01-17T10:21:23.005Z,93794.91
2023-01-17T10:23:44.483Z,93798.91
2023-01-17T10:25:50.090Z,93792.25
2023-01-17T10:27:58.782Z,93784.28
2023-01-17T10:30:04.841Z,93786.38
2023-01-17T10:32:11.618Z,93790.03
2023-01-17T10:34:18.193Z,93798.28
2023-01-17T10:36:23.672Z,93788.59
2023-01-17T10:38:31.891Z,93781.31
2023-01-17T10:40:42.170Z,93789.50
2023-01-17T10:42:55.466Z,93783.97
2023-01-17T10:45:06.378Z,93781.41
2023-01-17T10:47:19.187Z,93777.25
2023-01-17T10:49:24.792Z,93777.78
2023-01-17T10:51:43.909Z,93784.66
2023-01-17T10:54:03.776Z,93775.47
2023-01-17T10:56:07.845Z,93773.81
2023-01-17T10:58:13.533Z,93762.50
2023-01-17T11:00:29.657Z,93765.19
2023-01-17T11:02:39.857Z,93770.19
2023-01-17T11:04:47.347Z,93772.78
2023-01-17T11:07:12.131Z,93767.25
2023-01-17T11:09:15.733Z,93767.31
2023-01-17T11:11:19.500Z,93766.00
2023-01-17T11:13:29.181Z,93765.22
2023-01-17T11:15:34.327Z,93765.47
2023-01-17T11:17:39.011Z,93763.84
2023-01-17T11:19:45.427Z,93766.69
2023-01-17T11:21:53.237Z,93759.31
2023-01-17T11:23:57.406Z,93761.97
2023-01-17T11:26:03.558Z,93755.66
2023-01-17T11:28:08.880Z,93747.81
2023-01-17T11:30:18.776Z,93757.31
2023-01-17T11:32:32.821Z,93760.97
2023-01-17T11:34:35.583Z,93756.50
2023-01-17T11:36:38.332Z,93758.09
2023-01-17T11:38:41.583Z,93753.81
2023-01-17T11:40:45.649Z,93758.53
2023-01-17T11:43:00.337Z,93767.72
2023-01-17T11:45:25.662Z,93760.88
2023-01-17T11:47:28.497Z,93768.22
2023-01-17T11:49:31.185Z,93759.31
2023-01-17T11:51:41.329Z,93751.63
2023-01-17T11:53:48.015Z,93754.53
2023-01-17T11:56:05.371Z,93757.66
2023-01-17T11:58:15.458Z,93759.50
2023-01-17T12:00:23.497Z,93764.50
2023-01-17T12:03:05.382Z,93770.56
2023-01-17T12:05:29.012Z,93774.47
2023-01-17T12:07:44.124Z,93774.47
2023-01-17T12:09:58.063Z,93777.63
2023-01-17T12:12:30.057Z,93779.66
2023-01-17T12:14:44.163Z,93776.47
2023-01-17T12:17:01.854Z,93778.56
2023-01-17T12:19:28.701Z,93777.19
2023-01-17T12:21:42.510Z,93769.56
2023-01-17T12:24:17.224Z,93761.19
2023-01-17T12:26:33.620Z,93758.31
2023-01-17T12:28:59.387Z,93762.22
2023-01-17T12:31:14.421Z,93767.47
2023-01-17T12:33:25.113Z,93759.28
2023-01-17T12:35:38.557Z,93755.06
2023-01-17T12:37:45.162Z,93765.09
2023-01-17T12:39:57.948Z,93753.78
2023-01-17T12:42:06.886Z,93743.00
2023-01-17T12:44:15.547Z,93744.63
2023-01-17T12:46:23.961Z,93750.63
2023-01-17T12:48:33.922Z,93757.41
2023-01-17T12:50:43.380Z,93760.03
2023-01-17T12:52:54.047Z,93757.88
2023-01-17T12:55:03.132Z,93744.47
2023-01-17T12:57:14.131Z,93762.06
2023-01-17T12:59:23.097Z,93761.03
2023-01-17T13:01:30.729Z,93763.66
2023-01-17T13:03:47.282Z,93762.06
2023-01-17T13:05:53.275Z,93768.38
2023-01-17T13:08:02.106Z,93764.69
2023-01-17T13:10:18.870Z,93769.69
2023-01-17T13:12:23.733Z,93780.22
2023-01-17T13:14:27.844Z,93785.78
2023-01-17T13:16:35.139Z,93788.63
2023-01-17T13:18:46.213Z,93787.84
2023-01-17T13:21:04.892Z,93783.38
2023-01-17T13:23:16.611Z,93776.28
2023-01-17T13:25:38.044Z,93779.50
2023-01-17T13:28:02.865Z,93771.59
2023-01-17T13:30:24.767Z,93801.31
2023-01-17T13:32:52.485Z,93816.22
2023-01-17T13:35:15.071Z,93821.09
2023-01-17T13:37:44.866Z,93821.06
2023-01-17T13:40:06.368Z,93822.34
2023-01-17T13:42:13.833Z,93829.97
2023-01-17T13:44:22.920Z,93828.69
2023-01-17T13:46:25.662Z,93825.53
2023-01-17T13:48:33.282Z,93824.22
2023-01-17T13:50:52.955Z,93823.13
2023-01-17T13:52:58.045Z,93820.13
2023-01-17T13:55:02.570Z,93825.81
2023-01-17T13:57:40.078Z,93813.78
2023-01-17T13:59:42.749Z,93803.84
2023-01-17T14:02:03.384Z,93807.50
2023-01-17T14:04:08.555Z,93799.66
2023-01-17T14:06:30.447Z,93791.78
2023-01-17T14:08:38.706Z,93794.00
2023-01-17T14:10:45.101Z,93779.63
2023-01-17T14:12:47.936Z,93789.38
2023-01-17T14:14:55.783Z,93798.63
2023-01-17T14:17:28.053Z,93801.56
2023-01-17T14:19:30.997Z,93810.28
2023-01-17T14:21:35.487Z,93804.28
2023-01-17T14:23:57.460Z,93806.44
2023-01-17T14:26:13.130Z,93814.06
2023-01-17T14:28:24.029Z,93822.19
2023-01-17T14:30:29.040Z,93818.53
2023-01-17T14:32:33.984Z,93825.13
2023-01-17T14:34:38.055Z,93822.78
2023-01-17T14:36:41.042Z,93819.13
2023-01-17T14:38:46.091Z,93823.41
2023-01-17T14:40:55.117Z,93813.16
2023-01-17T14:43:02.348Z,93809.50
2023-01-17T14:45:12.728Z,93802.16
2023-01-17T14:47:17.071Z,93798.75
2023-01-17T14:49:24.092Z,93794.75
2023-01-17T14:51:26.908Z,93792.91
2023-01-17T14:53:33.930Z,93795.06
2023-01-17T14:55:37.076Z,93798.97
2023-01-17T14:57:43.390Z,93792.88
2023-01-17T14:59:48.526Z,93797.88
2023-01-17T15:02:07.164Z,93793.44
2023-01-17T15:04:27.521Z,93805.53
2023-01-17T15:06:38.212Z,93809.19
2023-01-17T15:08:41.541Z,93809.72
2023-01-17T15:10:51.571Z,93819.94
2023-01-17T15:12:57.659Z,93822.31
2023-01-17T15:15:02.673Z,93826.03
2023-01-17T15:17:12.818Z,93825.22
2023-01-17T15:19:19.932Z,93825.78
2023-01-17T15:21:26.438Z,93823.94
2023-01-17T15:23:34.493Z,93833.91
2023-01-17T15:25:38.674Z,93834.97
2023-01-17T15:27:50.842Z,93834.88
2023-01-17T15:29:59.044Z,93831.72
2023-01-17T15:32:03.809Z,93845.91
2023-01-17T15:34:07.838Z,93853.25
2023-01-17T15:36:24.809Z,93864.28
2023-01-17T15:38:28.914Z,93865.25
2023-01-17T15:40:37.716Z,93860.19
2023-01-17T15:42:44.037Z,93863.59
2023-01-17T15:44:49.375Z,93865.19
2023-01-17T15:46:54.267Z,93861.53
2023-01-17T15:49:13.040Z,93858.41
2023-01-17T15:51:31.958Z,93853.09
2023-01-17T15:53:37.238Z,93855.09
2023-01-17T15:55:43.132Z,93848.50
2023-01-17T15:57:47.431Z,93851.63
2023-01-17T15:59:59.567Z,93850.75
2023-01-17T16:02:03.863Z,93853.63
2023-01-17T16:04:30.224Z,93843.88
2023-01-17T16:06:45.441Z,93845.66
2023-01-17T16:08:53.520Z,93848.88
2023-01-17T16:11:01.677Z,93852.75
2023-01-17T16:13:05.888Z,93847.75
2023-01-17T16:15:13.480Z,93853.63
2023-01-17T16:17:19.449Z,93862.94
2023-01-17T16:19:27.010Z,93858.22
2023-01-17T16:21:31.994Z,93858.03
2023-01-17T16:23:34.668Z,93862.56
2023-01-17T16:25:38.510Z,93869.69
2023-01-17T16:27:43.067Z,93874.72
2023-01-17T16:29:47.166Z,93870.00
2023-01-17T16:31:49.940Z,93872.16
2023-01-17T16:33:53.987Z,93882.69
2023-01-17T16:35:56.908Z,93873.75
2023-01-17T16:38:01.036Z,93869.03
2023-01-17T16:40:04.023Z,93878.00
2023-01-17T16:42:06.852Z,93874.91
2023-01-17T16:44:15.127Z,93867.31
2023-01-17T16:46:21.682Z,93859.13
2023-01-17T16:48:24.420Z,93861.19
2023-01-17T16:50:51.928Z,93865.44
2023-01-17T16:52:56.137Z,93851.50
2023-01-17T16:54:58.942Z,93853.25
2023-01-17T16:57:01.572Z,93861.38
2023-01-17T16:59:04.298Z,93854.78
2023-01-17T17:01:12.653Z,93863.47
2023-01-17T17:03:16.872Z,93856.38
2023-01-17T17:05:20.226Z,93853.25
2023-01-17T17:07:24.281Z,93846.69
2023-01-17T17:09:27.072Z,93849.06
2023-01-17T17:11:29.726Z,93857.22
2023-01-17T17:13:35.551Z,93857.97
2023-01-17T17:15:41.998Z,93855.84
2023-01-17T17:17:44.864Z,93860.53
2023-01-17T17:19:48.432Z,93857.44
2023-01-17T17:21:51.512Z,93858.22
2023-01-17T17:23:57.969Z,93859.00
2023-01-17T17:26:00.792Z,93866.34
2023-01-17T17:28:03.727Z,93866.91
2023-01-17T17:30:07.327Z,93865.84
2023-01-17T17:32:11.472Z,93880.34
2023-01-17T17:34:15.637Z,93887.19
2023-01-17T17:36:18.676Z,93895.63
2023-01-17T17:38:21.480Z,93890.84
2023-01-17T17:40:26.255Z,93900.28
2023-01-17T17:42:28.924Z,93898.69
2023-01-17T17:44:31.588Z,93906.34
2023-01-17T17:46:39.875Z,93904.25
2023-01-17T17:48:42.621Z,93913.47
2023-01-17T17:50:45.291Z,93922.69
2023-01-17T17:52:49.247Z,93921.44
2023-01-17T17:54:52.384Z,93918.31
2023-01-17T17:56:56.407Z,93928.09
2023-01-17T17:58:59.669Z,93925.47
2023-01-17T18:01:07.229Z,93923.88
2023-01-17T18:03:09.938Z,93927.75
2023-01-17T18:05:12.744Z,93931.38
2023-01-17T18:07:15.460Z,93931.97
2023-01-17T18:09:18.599Z,93926.69
2023-01-17T18:11:23.751Z,93948.81
2023-01-17T18:13:27.904Z,93944.13
2023-01-17T18:15:30.536Z,93946.25
2023-01-17T18:17:33.317Z,93942.81
2023-01-17T18:19:36.135Z,93950.25
2023-01-17T18:21:39.744Z,93944.97
2023-01-17T18:23:44.649Z,93951.34
2023-01-17T18:25:47.398Z,93957.69
2023-01-17T18:27:50.342Z,93949.53
2023-01-17T18:29:54.355Z,93951.47
2023-01-17T18:31:57.241Z,93940.94
2023-01-17T18:34:05.320Z,93951.47
2023-01-17T18:36:10.303Z,93959.09
2023-01-17T18:38:13.105Z,93959.91
2023-01-17T18:40:16.281Z,93965.44
2023-01-17T18:42:19.052Z,93956.28
2023-01-17T18:44:22.668Z,93966.56
2023-01-17T18:46:27.632Z,93953.16
2023-01-17T18:48:30.794Z,93951.06
2023-01-17T18:50:33.535Z,93961.09
2023-01-17T18:52:37.075Z,93952.66
2023-01-17T18:54:39.785Z,93952.66
2023-01-17T18:56:42.871Z,93946.91
2023-01-17T18:58:48.290Z,93946.44
2023-01-17T19:00:51.372Z,93945.13
2023-01-17T19:02:55.394Z,93945.16
2023-01-17T19:04:58.048Z,93940.22
2023-01-17T19:07:00.664Z,93936.03
2023-01-17T19:09:03.570Z,93938.19
2023-01-17T19:11:06.650Z,93940.34
2023-01-17T19:13:09.294Z,93942.75
2023-01-17T19:15:12.353Z,93935.63
2023-01-17T19:17:15.026Z,93938.81
2023-01-17T19:19:19.134Z,93939.88
2023-01-17T19:21:23.765Z,93938.31
2023-01-17T19:23:26.441Z,93937.78
2023-01-17T19:25:30.179Z,93943.88
2023-01-17T19:27:32.962Z,93942.03
2023-01-17T19:29:35.641Z,93940.44
2023-01-17T19:31:42.387Z,93944.09
2023-01-17T19:33:46.933Z,93944.34
2023-01-17T19:35:51.075Z,93948.28
2023-01-17T19:37:56.022Z,93950.94
2023-01-17T19:39:58.818Z,93949.63
2023-01-17T19:42:01.459Z,93952.50
2023-01-17T19:44:06.360Z,93960.66
2023-01-17T19:46:10.037Z,93958.28
2023-01-17T19:48:14.409Z,93959.06
2023-01-17T19:50:18.725Z,93959.31
2023-01-17T19:52:24.067Z,93961.16
2023-01-17T19:54:26.786Z,93951.19
2023-01-17T19:56:30.691Z,93955.16
2023-01-17T19:58:33.426Z,93962.25
2023-01-17T20:00:45.867Z,93956.19
2023-01-17T20:02:50.252Z,93961.47
2023-01-17T20:04:52.922Z,93965.13
2023-01-17T20:06:55.779Z,93973.03
2023-01-17T20:09:00.257Z,93977.50
2023-01-17T20:11:03.903Z,93987.00
2023-01-17T20:13:06.921Z,93980.63
2023-01-17T20:15:11.523Z,93990.38
2023-01-17T20:17:14.327Z,93994.84
2023-01-17T20:19:17.104Z,93989.00
2023-01-17T20:21:24.251Z,93992.44
2023-01-17T20:23:27.032Z,93989.25
2023-01-17T20:25:31.237Z,93996.28
2023-01-17T20:27:34.738Z,93997.09
2023-01-17T20:29:40.539Z,93993.41
2023-01-17T20:31:44.382Z,94003.22
2023-01-17T20:33:50.549Z,94007.44
2023-01-17T20:36:08.747Z,94009.81
2023-01-17T20:38:12.731Z,94007.75
2023-01-17T20:40:17.420Z,94005.66
2023-01-17T20:42:21.557Z,94012.53
2023-01-17T20:44:24.433Z,94004.06
2023-01-17T20:46:29.707Z,94008.06
2023-01-17T20:48:32.361Z,94009.63
2023-01-17T20:50:36.842Z,94003.56
2023-01-17T20:52:40.118Z,94008.06
2023-01-17T20:54:43.410Z,94008.84
2023-01-17T20:56:47.363Z,93996.72
2023-01-17T20:58:51.974Z,94005.16
2023-01-17T21:00:55.973Z,94005.16
2023-01-17T21:02:58.776Z,94012.00
2023-01-17T21:05:03.601Z,94016.50
2023-01-17T21:07:06.753Z,94017.78
2023-01-17T21:09:19.136Z,94009.59
2023-01-17T21:11:24.203Z,94010.78
2023-01-17T21:13:27.708Z,94004.97
2023-01-17T21:15:32.064Z,94030.25
2023-01-17T21:17:35.988Z,94030.75
2023-01-17T21:19:38.659Z,94024.91
2023-01-17T21:21:41.439Z,94031.22
2023-01-17T21:23:45.110Z,94048.00
2023-01-17T21:26:06.294Z,94039.56
2023-01-17T21:28:08.925Z,94059.34
2023-01-17T21:30:13.135Z,94061.66
2023-01-17T21:32:17.314Z,94066.44
2023-01-17T21:34:20.074Z,94072.25
2023-01-17T21:36:25.098Z,94077.50
2023-01-17T21:38:27.779Z,94072.78
2023-01-17T21:40:30.485Z,94076.72
2023-01-17T21:42:33.258Z,94088.59
2023-01-17T21:44:37.908Z,94080.94
2023-01-17T21:46:41.935Z,94085.16
2023-01-17T21:48:46.289Z,94083.06
2023-01-17T21:50:52.515Z,94083.41
2023-01-17T21:52:55.248Z,94095.50
2023-01-17T21:55:27.106Z,94090.25
2023-01-17T21:57:49.428Z,94092.63
2023-01-17T21:59:52.359Z,94095.03
2023-01-17T22:01:55.080Z,94105.00
2023-01-17T22:04:01.162Z,94101.56
2023-01-17T22:06:04.883Z,94109.47
2023-01-17T22:08:15.153Z,94112.41
2023-01-17T22:10:26.851Z,94119.25
2023-01-17T22:12:33.467Z,94110.81
2023-01-17T22:14:39.749Z,94113.16
2023-01-17T22:16:43.941Z,94117.03
2023-01-17T22:18:47.402Z,94117.84
2023-01-17T22:20:51.628Z,94120.25
2023-01-17T22:22:54.738Z,94121.59
2023-01-17T22:24:57.569Z,94124.75
2023-01-17T22:27:00.475Z,94120.78
2023-01-17T22:29:04.342Z,94130.53
2023-01-17T22:31:10.694Z,94126.59
2023-01-17T22:33:23.405Z,94131.88
2023-01-17T22:35:26.798Z,94123.97
2023-01-17T22:37:30.994Z,94134.84
2023-01-17T22:39:33.618Z,94129.31
2023-01-17T22:41:39.425Z,94145.13
2023-01-17T22:43:44.573Z,94145.69
2023-01-17T22:45:47.275Z,94146.50
2023-01-17T22:47:50.075Z,94141.44
2023-01-17T22:49:52.693Z,94150.47
